sensor_id;sensor_type;location;lat;lon;timestamp;temperature;humidity
49821;DHT22;36893;52.520;13.450;2024-01-25T00:04:29;18.10;91.60
49821;DHT22;36893;52.520;13.450;2024-01-25T00:14:29;18.60;92.00
49821;DHT22;36893;52.520;13.450;2024-01-25T00:24:30;19.30;91.30
49821;DHT22;36893;52.520;13.450;2024-01-25T00:34:31;19.60;90.50
49821;DHT22;36893;52.520;13.450;2024-01-25T00:44:32;19.70;90.10
49821;DHT22;36893;52.520;13.450;2024-01-25T00:54:33;19.70;89.60
49821;DHT22;36893;52.520;13.450;2024-01-25T01:04:34;19.80;89.20
49821;DHT22;36893;52.520;13.450;2024-01-25T01:14:35;19.70;88.80
49821;DHT22;36893;52.520;13.450;2024-01-25T01:24:36;19.80;88.70
49821;DHT22;36893;52.520;13.450;2024-01-25T01:34:39;19.80;88.50
49821;DHT22;36893;52.520;13.450;2024-01-25T01:44:40;19.80;88.40
49821;DHT22;36893;52.520;13.450;2024-01-25T01:54:41;19.80;88.30
49821;DHT22;36893;52.520;13.450;2024-01-25T02:04:43;19.80;88.30
49821;DHT22;36893;52.520;13.450;2024-01-25T02:14:44;19.80;88.20
49821;DHT22;36893;52.520;13.450;2024-01-25T02:24:44;19.90;88.10
49821;DHT22;36893;52.520;13.450;2024-01-25T02:34:45;19.80;87.80
49821;DHT22;36893;52.520;13.450;2024-01-25T02:44:46;19.90;87.60
49821;DHT22;36893;52.520;13.450;2024-01-25T02:54:46;19.90;87.40
49821;DHT22;36893;52.520;13.450;2024-01-25T03:04:47;19.90;87.10
49821;DHT22;36893;52.520;13.450;2024-01-25T03:14:48;19.90;86.80
49821;DHT22;36893;52.520;13.450;2024-01-25T03:24:49;19.90;86.60
49821;DHT22;36893;52.520;13.450;2024-01-25T03:34:50;19.90;86.50
49821;DHT22;36893;52.520;13.450;2024-01-25T03:44:51;19.90;86.20
49821;DHT22;36893;52.520;13.450;2024-01-25T03:54:52;19.90;86.00
49821;DHT22;36893;52.520;13.450;2024-01-25T04:04:52;20.00;85.80
49821;DHT22;36893;52.520;13.450;2024-01-25T04:14:53;19.90;85.60
49821;DHT22;36893;52.520;13.450;2024-01-25T04:24:54;20.00;85.60
49821;DHT22;36893;52.520;13.450;2024-01-25T04:34:54;19.90;85.30
49821;DHT22;36893;52.520;13.450;2024-01-25T04:44:55;20.00;85.30
49821;DHT22;36893;52.520;13.450;2024-01-25T04:54:55;19.90;85.20
49821;DHT22;36893;52.520;13.450;2024-01-25T05:04:56;19.90;84.90
49821;DHT22;36893;52.520;13.450;2024-01-25T05:14:58;20.00;84.90
49821;DHT22;36893;52.520;13.450;2024-01-25T05:24:59;19.90;84.70
49821;DHT22;36893;52.520;13.450;2024-01-25T05:34:59;20.00;84.70
49821;DHT22;36893;52.520;13.450;2024-01-25T05:45:00;19.90;84.60
49821;DHT22;36893;52.520;13.450;2024-01-25T05:55:01;19.90;84.40
49821;DHT22;36893;52.520;13.450;2024-01-25T06:05:02;19.90;84.40
49821;DHT22;36893;52.520;13.450;2024-01-25T06:15:03;19.90;84.40
49821;DHT22;36893;52.520;13.450;2024-01-25T06:25:05;19.90;84.20
49821;DHT22;36893;52.520;13.450;2024-01-25T06:35:06;19.90;84.10
49821;DHT22;36893;52.520;13.450;2024-01-25T06:45:07;19.90;84.00
49821;DHT22;36893;52.520;13.450;2024-01-25T06:55:08;19.90;84.50
49821;DHT22;36893;52.520;13.450;2024-01-25T07:05:09;19.90;83.80
49821;DHT22;36893;52.520;13.450;2024-01-25T07:15:10;19.90;83.70
49821;DHT22;36893;52.520;13.450;2024-01-25T07:25:10;19.90;83.60
49821;DHT22;36893;52.520;13.450;2024-01-25T07:35:12;19.90;83.50
49821;DHT22;36893;52.520;13.450;2024-01-25T07:45:13;19.90;83.50
49821;DHT22;36893;52.520;13.450;2024-01-25T07:55:13;19.90;83.30
49821;DHT22;36893;52.520;13.450;2024-01-25T08:05:14;19.90;83.30
49821;DHT22;36893;52.520;13.450;2024-01-25T08:15:15;19.90;83.20
49821;DHT22;36893;52.520;13.450;2024-01-25T08:25:16;19.90;83.10
49821;DHT22;36893;52.520;13.450;2024-01-25T08:35:16;19.90;83.10
49821;DHT22;36893;52.520;13.450;2024-01-25T08:45:17;19.90;83.00
49821;DHT22;36893;52.520;13.450;2024-01-25T08:55:18;19.90;83.00
49821;DHT22;36893;52.520;13.450;2024-01-25T09:05:19;19.90;83.00
49821;DHT22;36893;52.520;13.450;2024-01-25T09:15:19;19.90;82.90
49821;DHT22;36893;52.520;13.450;2024-01-25T09:25:20;19.90;82.80
49821;DHT22;36893;52.520;13.450;2024-01-25T09:35:21;19.90;82.80
49821;DHT22;36893;52.520;13.450;2024-01-25T09:45:22;19.90;82.70
49821;DHT22;36893;52.520;13.450;2024-01-25T09:55:25;19.90;82.60
49821;DHT22;36893;52.520;13.450;2024-01-25T10:05:26;19.40;83.40
49821;DHT22;36893;52.520;13.450;2024-01-25T10:15:28;18.80;85.40
49821;DHT22;36893;52.520;13.450;2024-01-25T10:25:29;19.00;87.30
49821;DHT22;36893;52.520;13.450;2024-01-25T10:35:31;19.40;86.40
49821;DHT22;36893;52.520;13.450;2024-01-25T10:45:32;19.70;85.50
49821;DHT22;36893;52.520;13.450;2024-01-25T10:55:32;19.80;84.90
49821;DHT22;36893;52.520;13.450;2024-01-25T11:05:33;19.70;84.50
49821;DHT22;36893;52.520;13.450;2024-01-25T11:15:35;19.90;84.60
49821;DHT22;36893;52.520;13.450;2024-01-25T11:25:37;19.90;84.50
49821;DHT22;36893;52.520;13.450;2024-01-25T11:35:38;20.10;84.50
49821;DHT22;36893;52.520;13.450;2024-01-25T11:45:39;20.20;84.30
49821;DHT22;36893;52.520;13.450;2024-01-25T11:55:42;20.20;84.10
49821;DHT22;36893;52.520;13.450;2024-01-25T12:05:43;20.30;84.70
49821;DHT22;36893;52.520;13.450;2024-01-25T12:15:45;19.70;84.30
49821;DHT22;36893;52.520;13.450;2024-01-25T12:25:47;19.70;86.50
49821;DHT22;36893;52.520;13.450;2024-01-25T12:35:48;20.00;86.10
49821;DHT22;36893;52.520;13.450;2024-01-25T12:45:49;20.10;85.40
49821;DHT22;36893;52.520;13.450;2024-01-25T13:07:05;20.30;84.80
49821;DHT22;36893;52.520;13.450;2024-01-25T13:17:06;20.30;84.70
49821;DHT22;36893;52.520;13.450;2024-01-25T13:27:08;20.30;84.60
49821;DHT22;36893;52.520;13.450;2024-01-25T13:37:09;20.30;84.50
49821;DHT22;36893;52.520;13.450;2024-01-25T13:47:09;20.40;84.60
49821;DHT22;36893;52.520;13.450;2024-01-25T13:57:10;20.30;84.60
49821;DHT22;36893;52.520;13.450;2024-01-25T14:07:10;20.30;84.60
49821;DHT22;36893;52.520;13.450;2024-01-25T14:17:11;20.20;84.30
49821;DHT22;36893;52.520;13.450;2024-01-25T14:27:12;20.20;84.10
49821;DHT22;36893;52.520;13.450;2024-01-25T14:37:12;20.20;83.80
49821;DHT22;36893;52.520;13.450;2024-01-25T14:47:13;20.20;83.50
49821;DHT22;36893;52.520;13.450;2024-01-25T14:57:17;20.20;83.40
49821;DHT22;36893;52.520;13.450;2024-01-25T15:07:18;20.10;83.10
49821;DHT22;36893;52.520;13.450;2024-01-25T15:17:21;19.60;83.70
49821;DHT22;36893;52.520;13.450;2024-01-25T15:27:22;19.40;85.60
49821;DHT22;36893;52.520;13.450;2024-01-25T15:37:23;19.80;85.40
49821;DHT22;36893;52.520;13.450;2024-01-25T15:47:23;19.90;84.70
49821;DHT22;36893;52.520;13.450;2024-01-25T15:57:24;20.00;84.30
49821;DHT22;36893;52.520;13.450;2024-01-25T16:07:24;20.00;84.10
49821;DHT22;36893;52.520;13.450;2024-01-25T16:17:25;20.00;84.10
49821;DHT22;36893;52.520;13.450;2024-01-25T16:27:26;20.00;84.00
49821;DHT22;36893;52.520;13.450;2024-01-25T16:37:26;20.00;83.90
49821;DHT22;36893;52.520;13.450;2024-01-25T16:47:27;20.00;83.80
49821;DHT22;36893;52.520;13.450;2024-01-25T16:57:28;20.00;83.50
49821;DHT22;36893;52.520;13.450;2024-01-25T17:07:28;20.00;83.30
49821;DHT22;36893;52.520;13.450;2024-01-25T17:17:29;20.00;83.20
49821;DHT22;36893;52.520;13.450;2024-01-25T17:27:30;19.90;82.90
49821;DHT22;36893;52.520;13.450;2024-01-25T17:37:30;20.00;82.90
49821;DHT22;36893;52.520;13.450;2024-01-25T17:47:31;20.00;82.70
49821;DHT22;36893;52.520;13.450;2024-01-25T17:57:32;19.90;82.50
49821;DHT22;36893;52.520;13.450;2024-01-25T18:07:32;19.90;82.40
49821;DHT22;36893;52.520;13.450;2024-01-25T18:17:33;20.00;82.30
49821;DHT22;36893;52.520;13.450;2024-01-25T18:27:34;19.90;82.20
49821;DHT22;36893;52.520;13.450;2024-01-25T18:37:34;19.90;82.00
49821;DHT22;36893;52.520;13.450;2024-01-25T18:47:35;19.90;81.90
49821;DHT22;36893;52.520;13.450;2024-01-25T18:57:36;19.90;81.90
49821;DHT22;36893;52.520;13.450;2024-01-25T19:07:38;19.90;81.80
49821;DHT22;36893;52.520;13.450;2024-01-25T19:17:39;19.90;81.70
49821;DHT22;36893;52.520;13.450;2024-01-25T19:27:39;19.90;81.60
49821;DHT22;36893;52.520;13.450;2024-01-25T19:37:40;19.80;81.50
49821;DHT22;36893;52.520;13.450;2024-01-25T19:47:41;19.80;81.50
49821;DHT22;36893;52.520;13.450;2024-01-25T19:57:42;19.80;81.50
49821;DHT22;36893;52.520;13.450;2024-01-25T20:07:43;19.80;81.40
49821;DHT22;36893;52.520;13.450;2024-01-25T20:17:43;19.80;81.30
49821;DHT22;36893;52.520;13.450;2024-01-25T20:27:44;19.80;81.20
49821;DHT22;36893;52.520;13.450;2024-01-25T20:37:46;19.80;81.10
49821;DHT22;36893;52.520;13.450;2024-01-25T20:47:47;19.80;81.10
49821;DHT22;36893;52.520;13.450;2024-01-25T20:57:49;19.80;81.10
49821;DHT22;36893;52.520;13.450;2024-01-25T21:07:52;19.80;81.00
49821;DHT22;36893;52.520;13.450;2024-01-25T21:17:52;19.80;80.90
49821;DHT22;36893;52.520;13.450;2024-01-25T21:27:53;19.80;80.80
49821;DHT22;36893;52.520;13.450;2024-01-25T21:37:54;19.80;80.80
49821;DHT22;36893;52.520;13.450;2024-01-25T21:47:54;19.80;80.70
49821;DHT22;36893;52.520;13.450;2024-01-25T21:57:55;19.80;80.60
49821;DHT22;36893;52.520;13.450;2024-01-25T22:07:56;19.80;80.60
49821;DHT22;36893;52.520;13.450;2024-01-25T22:17:57;19.80;80.60
49821;DHT22;36893;52.520;13.450;2024-01-25T22:27:57;19.70;80.50
49821;DHT22;36893;52.520;13.450;2024-01-25T22:38:00;19.70;80.50
49821;DHT22;36893;52.520;13.450;2024-01-25T22:48:01;19.70;80.50
49821;DHT22;36893;52.520;13.450;2024-01-25T22:58:02;19.70;80.40
49821;DHT22;36893;52.520;13.450;2024-01-25T23:08:03;19.70;80.30
49821;DHT22;36893;52.520;13.450;2024-01-25T23:18:04;19.70;81.10
49821;DHT22;36893;52.520;13.450;2024-01-25T23:28:05;19.70;80.30
49821;DHT22;36893;52.520;13.450;2024-01-25T23:38:06;19.70;80.20
49821;DHT22;36893;52.520;13.450;2024-01-25T23:48:07;19.70;80.20
49821;DHT22;36893;52.520;13.450;2024-01-25T23:58:09;19.70;80.10
